Time;durP1;ratioP1;P1;durP2;ratioP2;P2;SDS_P1;SDS_P2;PMS_P1;PMS_P2;Temp;Humidity;BMP_temperature;BMP_pressure;BME280_temperature;BME280_humidity;BME280_pressure;Samples;Min_cycle;Max_cycle;Signal;HPM_P1;HPM_P2
2022/04/08 00:00:45;;;;;;;6.70;1.42;;;;;;;-144.47;49.17;53424.19;5049211;28;20033;-70
2022/04/08 00:03:11;;;;;;;4.80;1.30;;;;;;;-144.47;49.56;53471.84;5056433;28;20028;-69
2022/04/08 00:05:36;;;;;;;7.93;1.63;;;;;;;-144.47;49.43;53452.00;5054333;28;20067;-69
2022/04/08 00:08:01;;;;;;;10.00;2.88;;;;;;;-144.47;49.42;53452.00;5049791;28;20055;-70
2022/04/08 00:10:27;;;;;;;11.57;1.77;;;;;;;-144.47;49.53;53457.94;5062708;28;20025;-70
2022/04/08 00:12:52;;;;;;;10.75;1.88;;;;;;;-144.47;49.24;53459.94;5058665;28;20033;-68
2022/04/08 00:15:17;;;;;;;8.98;1.30;;;;;;;-144.47;49.15;53489.72;5044898;28;20045;-68
2022/04/08 00:17:43;;;;;;;5.20;1.50;;;;;;;-144.47;48.71;53440.06;5055493;28;20032;-68
2022/04/08 00:20:08;;;;;;;8.95;1.80;;;;;;;-144.47;48.46;53457.94;5058133;28;20509;-70
2022/04/08 00:22:43;;;;;;;13.55;1.25;;;;;;;-144.47;48.79;53452.00;5049383;28;20585;-68
2022/04/08 00:25:09;;;;;;;9.90;2.10;;;;;;;-144.47;48.54;53414.25;5048325;28;20024;-69
2022/04/08 00:27:35;;;;;;;8.48;1.52;;;;;;;-144.47;48.42;53442.06;5029508;28;20045;-71
2022/04/08 00:30:00;;;;;;;10.23;1.65;;;;;;;-144.47;48.55;53440.06;5047241;28;20403;-68
2022/04/08 00:32:27;;;;;;;8.93;1.30;;;;;;;-144.47;48.34;53453.97;5048353;28;20499;-68
2022/04/08 00:34:52;;;;;;;6.97;1.75;;;;;;;-144.47;48.43;53426.16;5046102;28;20124;-68
2022/04/08 00:37:18;;;;;;;6.53;1.45;;;;;;;-144.47;48.38;53444.03;5048785;28;20154;-69
2022/04/08 00:39:43;;;;;;;5.75;1.63;;;;;;;-144.47;48.49;53452.00;5048398;28;20511;-68
2022/04/08 00:42:08;;;;;;;6.30;1.45;;;;;;;-144.47;48.76;53446.03;5047846;28;20032;-70
2022/04/08 00:44:34;;;;;;;10.48;1.45;;;;;;;-144.47;48.93;53452.00;5042005;28;20041;-69
2022/04/08 00:46:59;;;;;;;7.57;1.60;;;;;;;-144.47;49.07;53455.97;5048093;28;20552;-68
2022/04/08 00:49:24;;;;;;;11.07;1.55;;;;;;;-144.47;49.32;53432.13;5049093;28;20025;-69
2022/04/08 00:51:50;;;;;;;7.85;1.30;;;;;;;-144.47;49.46;53452.00;5047950;28;20032;-69
2022/04/08 00:54:17;;;;;;;5.60;1.30;;;;;;;-144.47;49.53;53452.00;5047299;28;20113;-68
2022/04/08 00:56:42;;;;;;;5.88;1.00;;;;;;;-144.47;49.54;53459.94;5047368;28;20025;-66
2022/04/08 00:59:08;;;;;;;8.38;1.23;;;;;;;-144.47;49.50;53495.69;5047772;28;20112;-67
2022/04/08 01:01:33;;;;;;;5.72;1.15;;;;;;;-144.47;49.99;53422.19;5047063;28;20029;-69
2022/04/08 01:03:58;;;;;;;10.15;1.42;;;;;;;-144.47;50.03;53461.91;5047453;28;20557;-68
2022/04/08 01:06:25;;;;;;;3.75;1.00;;;;;;;-144.47;50.20;53452.00;5029157;28;20037;-69
2022/04/08 01:08:51;;;;;;;6.07;1.17;;;;;;;-144.47;50.73;53428.16;5030458;28;20136;-70
2022/04/08 01:11:18;;;;;;;5.50;1.30;;;;;;;-144.47;50.99;53455.97;5046854;28;20388;-67
2022/04/08 01:13:43;;;;;;;7.85;1.85;;;;;;;-144.47;51.04;53438.09;5046947;28;20040;-68
2022/04/08 01:16:09;;;;;;;8.18;1.20;;;;;;;-144.47;51.14;53442.06;5047882;28;20616;-69
2022/04/08 01:18:36;;;;;;;6.68;1.70;;;;;;;-144.47;51.27;53430.13;5048213;28;20032;-69
2022/04/08 01:21:05;;;;;;;5.32;1.50;;;;;;;-144.47;51.42;53475.81;5047464;28;20059;-68
2022/04/08 01:23:34;;;;;;;3.58;1.20;;;;;;;-144.47;51.67;53432.13;5046952;28;20486;-70
2022/04/08 01:26:02;;;;;;;7.47;1.70;;;;;;;-144.47;51.93;53452.00;5046574;28;20033;-68
2022/04/08 01:28:28;;;;;;;8.55;1.23;;;;;;;-144.47;51.97;53461.91;5071699;22;20051;-66
2022/04/08 01:30:54;;;;;;;5.75;1.13;;;;;;;-144.47;51.82;53455.97;5073293;28;20017;-65
2022/04/08 01:33:19;;;;;;;4.53;1.30;;;;;;;-144.47;51.93;53455.97;5072578;28;20025;-66
2022/04/08 01:35:45;;;;;;;7.07;1.80;;;;;;;-144.47;52.30;53453.97;5072790;28;20029;-67
2022/04/08 01:38:10;;;;;;;9.55;1.73;;;;;;;-144.47;52.43;53471.84;5072146;28;20049;-67
2022/04/08 01:40:35;;;;;;;4.60;1.65;;;;;;;-144.47;52.13;53459.94;5071194;28;20078;-67
2022/04/08 01:43:01;;;;;;;5.78;1.08;;;;;;;-144.47;52.28;53459.94;5070618;28;20036;-65
2022/04/08 01:45:26;;;;;;;5.47;1.33;;;;;;;-144.47;52.42;53483.78;5071360;28;20029;-67
2022/04/08 01:47:51;;;;;;;5.80;1.38;;;;;;;-144.47;52.40;53442.06;5071576;28;20059;-66
2022/04/08 01:50:19;;;;;;;4.10;1.20;;;;;;;-144.47;52.44;53448.00;5069678;28;20032;-66
2022/04/08 01:52:44;;;;;;;9.02;1.55;;;;;;;-144.47;52.35;53477.81;5051516;28;20048;-65
2022/04/08 01:55:10;;;;;;;6.32;1.50;;;;;;;-144.47;52.37;53489.72;5068452;28;20058;-66
2022/04/08 01:57:35;;;;;;;4.93;1.20;;;;;;;-144.47;52.08;53461.91;5068785;28;20124;-66
2022/04/08 02:00:04;;;;;;;6.88;1.63;;;;;;;-144.47;52.28;53455.97;5070220;28;20116;-65
2022/04/08 02:02:29;;;;;;;6.68;1.88;;;;;;;-144.47;52.34;53487.75;5070087;28;20033;-66
2022/04/08 02:04:55;;;;;;;4.25;1.30;;;;;;;-144.47;52.29;53420.22;5068568;28;20048;-66
2022/04/08 02:07:20;;;;;;;8.32;2.13;;;;;;;-144.47;52.29;53422.19;5071042;28;20025;-66
2022/04/08 02:09:45;;;;;;;8.77;1.27;;;;;;;-144.47;52.19;53440.06;5071611;28;20048;-65
2022/04/08 02:12:11;;;;;;;4.50;1.48;;;;;;;-144.47;52.40;53430.13;5069511;28;20043;-64
2022/04/08 02:14:36;;;;;;;4.82;1.58;;;;;;;-144.47;52.56;53430.13;5070150;28;20044;-66
2022/04/08 02:17:02;;;;;;;2.80;1.17;;;;;;;-144.47;52.51;53428.16;5071304;28;20040;-67
2022/04/08 02:19:27;;;;;;;5.53;1.67;;;;;;;-144.47;52.66;53444.03;5071599;28;20448;-67
2022/04/08 02:21:53;;;;;;;7.40;2.88;;;;;;;-144.47;52.62;53481.78;5068794;28;20111;-67
2022/04/08 02:24:19;;;;;;;10.85;2.10;;;;;;;-144.47;53.03;53455.97;5071417;28;20037;-66
2022/04/08 02:26:44;;;;;;;6.68;1.42;;;;;;;-144.47;53.21;53483.78;5072748;28;20083;-66
2022/04/08 02:29:10;;;;;;;3.88;1.15;;;;;;;-144.47;52.86;53469.88;5070415;28;20062;-65
2022/04/08 02:31:35;;;;;;;8.10;1.70;;;;;;;-144.47;52.77;53473.84;5074196;28;20099;-66
2022/04/08 02:34:00;;;;;;;5.18;1.60;;;;;;;-144.47;52.91;53501.66;5072756;28;20024;-66
2022/04/08 02:36:25;;;;;;;9.10;1.77;;;;;;;-144.47;53.11;53465.91;5073295;28;20032;-67
2022/04/08 02:38:51;;;;;;;6.22;1.80;;;;;;;-144.47;52.66;53452.00;5071362;28;20060;-66
2022/04/08 02:41:16;;;;;;;6.20;1.60;;;;;;;-144.47;52.81;53453.97;5070686;28;20048;-67
2022/04/08 02:43:41;;;;;;;5.45;1.73;;;;;;;-144.47;53.06;53475.81;5070060;28;20027;-67
2022/04/08 02:46:07;;;;;;;10.88;1.85;;;;;;;-144.47;52.87;53453.97;5072606;28;20057;-66
2022/04/08 02:48:32;;;;;;;7.38;1.88;;;;;;;-144.47;52.63;53503.63;5072070;28;20051;-67
2022/04/08 02:50:57;;;;;;;6.07;1.83;;;;;;;-144.47;52.62;53459.94;5070865;28;20405;-66
2022/04/08 02:53:23;;;;;;;5.18;1.65;;;;;;;-144.47;52.66;53477.81;5070033;28;20532;-66
2022/04/08 02:55:48;;;;;;;7.57;1.55;;;;;;;-144.47;52.42;53428.16;5054205;28;20082;-65
2022/04/08 02:58:13;;;;;;;5.07;1.60;;;;;;;-144.47;52.39;53469.88;5052958;28;20472;-68
2022/04/08 03:00:40;;;;;;;4.45;1.63;;;;;;;-144.47;52.38;53463.91;5072994;28;20520;-66
2022/04/08 03:03:05;;;;;;;5.78;1.75;;;;;;;-144.47;52.47;53444.03;5053028;28;20049;-66
2022/04/08 03:05:31;;;;;;;4.07;1.55;;;;;;;-144.47;52.47;53459.94;5071066;28;20024;-66
2022/04/08 03:07:56;;;;;;;8.18;1.90;;;;;;;-144.47;52.27;53432.13;5070355;28;20059;-67
2022/04/08 03:10:21;;;;;;;9.68;2.10;;;;;;;-144.47;52.31;53457.94;5071446;28;20025;-68
2022/04/08 03:12:48;;;;;;;6.25;1.83;;;;;;;-144.47;52.50;53473.84;5071911;28;20058;-66
2022/04/08 03:15:13;;;;;;;5.90;1.52;;;;;;;-144.47;52.40;53467.88;5072366;28;20036;-68
2022/04/08 03:17:38;;;;;;;4.95;1.48;;;;;;;-144.47;52.26;53519.53;5073026;28;20039;-67
2022/04/08 03:20:05;;;;;;;7.45;1.85;;;;;;;-144.47;52.67;53452.00;5070437;28;20486;-66
2022/04/08 03:22:30;;;;;;;7.00;1.88;;;;;;;-144.47;52.57;53487.75;5069212;28;20032;-66
2022/04/08 03:24:56;;;;;;;9.07;1.92;;;;;;;-144.47;52.85;53459.94;5070298;28;20017;-68
2022/04/08 03:27:21;;;;;;;5.22;1.63;;;;;;;-144.47;53.05;53491.72;5071081;28;20033;-66
2022/04/08 03:29:48;;;;;;;5.95;2.00;;;;;;;-144.47;52.86;53432.13;5071194;28;20119;-67
2022/04/08 03:32:14;;;;;;;5.75;1.30;;;;;;;-144.47;53.31;53461.91;5072827;28;20108;-66
2022/04/08 03:34:39;;;;;;;8.55;2.15;;;;;;;-144.47;53.26;53479.81;5072429;28;20486;-66
2022/04/08 03:37:05;;;;;;;6.63;1.80;;;;;;;-144.47;53.06;53459.94;5073659;28;20025;-66
2022/04/08 03:39:31;;;;;;;7.80;2.25;;;;;;;-144.47;52.83;53475.81;5071181;28;20024;-66
2022/04/08 03:41:57;;;;;;;4.78;1.70;;;;;;;-144.47;52.83;53467.88;5071004;28;20063;-66
2022/04/08 03:44:22;;;;;;;6.07;1.77;;;;;;;-144.47;53.06;53499.66;5060322;28;20043;-67
2022/04/08 03:46:47;;;;;;;4.32;1.80;;;;;;;-144.47;53.34;53487.75;5071559;28;20040;-66
2022/04/08 03:49:14;;;;;;;8.25;1.73;;;;;;;-144.47;53.39;53475.81;5071859;28;20556;-67
2022/04/08 03:51:43;;;;;;;8.60;1.90;;;;;;;-144.47;53.34;53479.81;5069975;28;20093;-66
2022/04/08 03:54:09;;;;;;;5.70;2.17;;;;;;;-144.47;53.61;53455.97;5067430;28;20028;-65
2022/04/08 03:56:35;;;;;;;5.63;1.73;;;;;;;-144.47;53.31;53448.00;5067978;28;20032;-66
2022/04/08 03:59:00;;;;;;;6.18;2.20;;;;;;;-144.47;53.38;53479.81;5069889;28;20028;-66
2022/04/08 04:01:25;;;;;;;4.78;1.63;;;;;;;-144.47;53.11;53459.94;5071458;28;20466;-67
2022/04/08 04:03:51;;;;;;;7.65;1.80;;;;;;;-144.47;53.23;53471.84;5070047;28;20036;-67
2022/04/08 04:06:16;;;;;;;4.40;2.13;;;;;;;-144.47;53.38;53434.09;5052540;28;20037;-66
2022/04/08 04:08:41;;;;;;;12.15;2.22;;;;;;;-144.47;53.53;53450.00;5054067;28;20038;-68
2022/04/08 04:11:07;;;;;;;8.68;2.78;;;;;;;-144.47;53.31;53461.91;5070634;28;20033;-66
2022/04/08 04:13:32;;;;;;;9.15;2.40;;;;;;;-144.47;53.10;53473.84;5053079;28;20017;-67
2022/04/08 04:15:57;;;;;;;7.75;2.38;;;;;;;-144.47;53.34;53457.94;5070695;28;20024;-66
2022/04/08 04:18:22;;;;;;;7.47;2.30;;;;;;;-144.47;52.98;53459.94;5071263;28;20120;-66
2022/04/08 04:20:48;;;;;;;9.23;2.80;;;;;;;-144.47;53.73;53442.06;5071817;28;20122;-66
2022/04/08 04:23:13;;;;;;;7.30;2.40;;;;;;;-144.47;53.40;53440.06;5072060;28;20081;-67
2022/04/08 04:25:38;;;;;;;12.05;2.47;;;;;;;-144.47;53.24;53463.91;5067879;28;20131;-66
2022/04/08 04:28:04;;;;;;;7.25;2.22;;;;;;;-144.47;52.97;53461.91;5072676;28;20035;-66
2022/04/08 04:30:30;;;;;;;8.18;2.58;;;;;;;-144.47;53.12;53438.09;5060561;28;20039;-67
2022/04/08 04:32:56;;;;;;;6.88;2.08;;;;;;;-144.47;53.11;53475.81;5053330;28;20139;-66
2022/04/08 04:35:22;;;;;;;12.27;2.25;;;;;;;-144.47;53.21;53455.97;5073002;28;20478;-65
2022/04/08 04:37:48;;;;;;;6.68;2.58;;;;;;;-144.47;53.03;53452.00;5071819;28;20044;-64
2022/04/08 04:40:13;;;;;;;6.82;2.00;;;;;;;-144.47;52.86;53471.84;5070446;28;20082;-65
2022/04/08 04:42:38;;;;;;;12.88;2.40;;;;;;;-144.47;52.74;53471.84;5068785;28;20082;-67
2022/04/08 04:45:04;;;;;;;5.38;2.10;;;;;;;-144.47;52.91;53422.19;5065852;28;20048;-66
2022/04/08 04:47:29;;;;;;;8.27;2.20;;;;;;;-144.47;52.64;53519.53;5071514;28;20035;-67
2022/04/08 04:49:55;;;;;;;4.57;2.03;;;;;;;-144.47;52.74;53473.84;5068887;28;20518;-68
2022/04/08 04:52:20;;;;;;;4.88;1.85;;;;;;;-144.47;52.64;53440.06;5051799;28;20024;-67
2022/04/08 04:54:45;;;;;;;4.65;1.58;;;;;;;-144.47;52.45;53461.91;5069042;28;20043;-65
2022/04/08 04:57:10;;;;;;;6.20;1.70;;;;;;;-144.47;52.49;53467.88;5070085;28;20536;-66
2022/04/08 04:59:36;;;;;;;7.18;2.55;;;;;;;-144.47;52.57;53463.91;5069635;28;20032;-66
2022/04/08 05:02:01;;;;;;;4.57;1.85;;;;;;;-144.47;52.64;53461.91;5067905;28;20123;-68
2022/04/08 05:04:26;;;;;;;4.32;1.85;;;;;;;-144.47;52.67;53467.88;5068800;28;20021;-67
2022/04/08 05:06:52;;;;;;;4.95;1.80;;;;;;;-144.47;52.49;53471.84;5063612;28;20676;-66
2022/04/08 05:09:19;;;;;;;6.45;2.25;;;;;;;-144.47;52.60;53467.88;5062960;28;20052;-66
2022/04/08 05:11:45;;;;;;;6.28;1.85;;;;;;;-144.47;52.39;53471.84;5064030;28;20045;-67
2022/04/08 05:14:10;;;;;;;8.07;1.98;;;;;;;-144.47;52.09;53453.97;5063291;28;21322;-67
2022/04/08 05:16:35;;;;;;;4.00;1.42;;;;;;;-144.47;52.12;53475.81;5062994;28;20032;-68
2022/04/08 05:19:01;;;;;;;4.47;1.70;;;;;;;-144.47;52.02;53473.84;5067437;28;20016;-66
2022/04/08 05:21:29;;;;;;;5.00;1.33;;;;;;;-144.47;51.70;53438.09;5065630;28;20028;-65
2022/04/08 05:23:54;;;;;;;4.18;1.70;;;;;;;-144.47;51.45;53469.88;5061769;28;20029;-67
2022/04/08 05:26:20;;;;;;;3.65;1.30;;;;;;;-144.47;51.77;53453.97;5070386;28;20528;-68
2022/04/08 05:28:46;;;;;;;8.15;2.85;;;;;;;-144.47;51.71;53442.06;5071894;28;20036;-66
2022/04/08 05:31:11;;;;;;;7.72;2.13;;;;;;;-144.47;51.69;53455.97;5075797;28;20539;-67
2022/04/08 05:33:36;;;;;;;4.18;1.33;;;;;;;-144.47;51.50;53436.09;5057664;28;20043;-65
2022/04/08 05:36:02;;;;;;;7.00;1.50;;;;;;;-144.47;51.94;53479.81;5074960;28;20029;-66
2022/04/08 05:38:27;;;;;;;4.57;1.30;;;;;;;-144.47;51.81;53489.72;5073475;28;20028;-66
2022/04/08 05:40:53;;;;;;;5.95;1.35;;;;;;;-144.47;51.92;53483.78;5056083;28;20032;-66
2022/04/08 05:43:18;;;;;;;6.03;1.65;;;;;;;-144.47;52.09;53461.91;5073565;28;20089;-67
2022/04/08 05:45:43;;;;;;;5.07;1.45;;;;;;;-144.47;51.62;53461.91;5056227;28;20051;-65
2022/04/08 05:48:09;;;;;;;5.63;1.58;;;;;;;-144.47;51.91;53416.22;5092211;28;20118;-67
2022/04/08 05:50:34;;;;;;;4.28;1.52;;;;;;;-144.47;51.84;53491.72;5078843;28;20032;-67
2022/04/08 05:53:00;;;;;;;6.07;2.33;;;;;;;-144.47;52.11;53467.88;5078013;28;20111;-66
2022/04/08 05:55:25;;;;;;;4.57;1.50;;;;;;;-144.47;52.34;53477.81;5078600;28;20040;-67
2022/04/08 05:57:53;;;;;;;7.93;1.70;;;;;;;-144.47;52.48;53457.94;5079219;28;20045;-68
2022/04/08 06:00:20;;;;;;;3.60;1.30;;;;;;;-144.47;52.48;53457.94;5078327;28;20092;-67
2022/04/08 06:02:47;;;;;;;5.60;1.40;;;;;;;-144.47;52.30;53469.88;5078255;28;20044;-66
2022/04/08 06:05:18;;;;;;;4.22;1.27;;;;;;;-144.47;52.27;53436.09;5078103;28;20061;-66
2022/04/08 06:07:45;;;;;;;5.43;1.65;;;;;;;-144.47;51.58;53459.94;5076428;28;20024;-67
2022/04/08 06:10:10;;;;;;;8.98;1.95;;;;;;;-144.47;51.56;53483.78;5079226;28;20047;-67
2022/04/08 06:12:35;;;;;;;5.95;1.58;;;;;;;-144.47;51.22;53467.88;5070426;28;20276;-67
2022/04/08 06:15:00;;;;;;;6.20;1.70;;;;;;;-144.47;51.04;53473.84;5058655;28;20040;-67
2022/04/08 06:17:34;;;;;;;5.82;1.38;;;;;;;-144.47;51.13;53469.88;5077650;28;20570;-67
2022/04/08 06:20:00;;;;;;;6.28;1.45;;;;;;;-144.47;50.87;53477.81;5059880;28;20056;-68
2022/04/08 06:22:25;;;;;;;3.72;1.50;;;;;;;-144.47;50.77;53440.06;5085202;28;20374;-66
2022/04/08 06:24:50;;;;;;;6.75;1.40;;;;;;;-144.47;51.11;53471.84;5084001;28;20081;-66
2022/04/08 06:27:16;;;;;;;3.47;1.33;;;;;;;-144.47;50.57;53489.72;5078152;28;20073;-68
2022/04/08 06:29:41;;;;;;;10.23;1.67;;;;;;;-144.47;50.45;53467.88;5067185;28;20131;-67
2022/04/08 06:32:07;;;;;;;3.25;1.20;;;;;;;-144.47;50.42;53457.94;5065018;28;20123;-67
2022/04/08 06:34:32;;;;;;;5.60;1.50;;;;;;;-144.47;50.76;53452.00;5067527;28;20048;-67
2022/04/08 06:36:57;;;;;;;3.05;1.30;;;;;;;-144.47;50.75;53469.88;5076286;28;20024;-67
2022/04/08 06:39:23;;;;;;;3.90;1.65;;;;;;;-144.47;50.07;53436.09;5076960;28;20078;-67
2022/04/08 06:41:48;;;;;;;4.30;1.42;;;;;;;-144.47;49.93;53459.94;5073592;28;20561;-67
2022/04/08 06:44:13;;;;;;;4.63;1.10;;;;;;;-144.47;48.64;53463.91;5072351;28;20032;-66
2022/04/08 06:46:38;;;;;;;5.90;1.35;;;;;;;-144.47;47.96;53455.97;5066541;28;20029;-66
2022/04/08 06:49:04;;;;;;;3.70;1.15;;;;;;;-144.47;48.10;53467.88;5069464;28;20025;-68
2022/04/08 06:51:30;;;;;;;1.90;1.10;;;;;;;-144.47;48.41;53418.22;5070847;28;20097;-66
2022/04/08 06:53:55;;;;;;;5.80;1.10;;;;;;;-144.47;47.99;53436.09;5070676;28;20173;-66
2022/04/08 06:56:21;;;;;;;5.22;1.60;;;;;;;-144.47;48.04;53453.97;5071371;28;20652;-68
2022/04/08 06:58:46;;;;;;;6.40;1.35;;;;;;;-144.47;47.85;53461.91;5074106;28;20045;-67
2022/04/08 07:01:11;;;;;;;5.47;1.30;;;;;;;-144.47;48.66;53424.19;5073712;28;20027;-68
2022/04/08 07:03:37;;;;;;;4.05;1.48;;;;;;;-144.47;48.58;53442.06;5054459;28;20518;-67
2022/04/08 07:06:03;;;;;;;4.60;1.42;;;;;;;-144.47;47.47;53467.88;5070324;28;20051;-66
2022/04/08 07:08:28;;;;;;;4.70;1.15;;;;;;;-144.47;47.32;53432.13;5076972;28;20043;-67
2022/04/08 07:10:54;;;;;;;5.00;1.25;;;;;;;-144.47;47.96;53457.94;5076124;28;20032;-66
2022/04/08 07:13:19;;;;;;;6.03;1.77;;;;;;;-144.47;48.86;53452.00;5067208;28;20055;-67
2022/04/08 07:15:44;;;;;;;5.32;1.60;;;;;;;-144.47;48.59;53463.91;5077561;28;20033;-66
2022/04/08 07:18:10;;;;;;;3.88;1.30;;;;;;;-144.47;49.06;53440.06;5079056;28;20028;-68
2022/04/08 07:20:35;;;;;;;3.92;1.67;;;;;;;-144.47;49.35;53432.13;5077686;28;20592;-66
2022/04/08 07:23:01;;;;;;;7.65;1.80;;;;;;;-144.47;48.75;53452.00;5076644;28;20265;-68
2022/04/08 07:25:27;;;;;;;7.57;1.67;;;;;;;-144.47;49.16;53440.06;5076525;28;20029;-68
2022/04/08 07:30:22;;;;;;;5.90;1.40;;;;;;;-144.47;48.25;53453.97;5067770;28;20079;-69
2022/04/08 07:32:50;;;;;;;4.05;1.40;;;;;;;-144.47;47.36;53438.09;5069914;28;20028;-70
2022/04/08 07:35:15;;;;;;;6.10;1.40;;;;;;;-144.47;47.71;53455.97;5068372;28;20029;-69
2022/04/08 07:37:41;;;;;;;4.95;1.00;;;;;;;-144.47;47.78;53430.13;5069765;28;20363;-68
2022/04/08 07:40:08;;;;;;;4.03;1.33;;;;;;;-144.47;47.89;53477.81;5051339;28;20020;-70
2022/04/08 07:42:34;;;;;;;2.95;1.30;;;;;;;-144.47;47.17;53406.31;5068937;28;20033;-68
2022/04/08 07:44:59;;;;;;;2.55;1.13;;;;;;;-144.47;46.53;53434.09;5067250;28;20092;-70
2022/04/08 07:47:28;;;;;;;5.93;1.27;;;;;;;-144.47;47.15;53434.09;5068981;28;20402;-69
2022/04/08 07:50:13;;;;;;;2.25;1.27;;;;;;;-144.47;47.02;53446.03;5068085;28;20040;-69
2022/04/08 07:52:39;;;;;;;1.77;0.80;;;;;;;-144.47;45.74;53459.94;5063061;28;20012;-69
2022/04/08 07:55:09;;;;;;;3.95;1.33;;;;;;;-144.47;45.40;53450.00;5067623;28;20023;-68
2022/04/08 07:57:43;;;;;;;6.22;1.08;;;;;;;-144.47;45.36;53432.13;5069338;28;20064;-70
2022/04/08 08:00:09;;;;;;;12.68;1.20;;;;;;;-144.47;44.82;53412.25;5046001;28;20067;-69
2022/04/08 08:02:34;;;;;;;4.70;1.05;;;;;;;-144.47;44.69;53420.22;5068695;28;20120;-72
2022/04/08 08:04:59;;;;;;;3.17;1.15;;;;;;;-144.47;45.20;53446.03;5067152;28;20123;-72
2022/04/08 08:07:25;;;;;;;5.78;1.00;;;;;;;-144.47;45.85;53459.94;5069173;28;20257;-71
2022/04/08 08:09:50;;;;;;;6.90;1.42;;;;;;;-144.47;46.08;53440.06;5068238;28;20078;-70
2022/04/08 08:12:15;;;;;;;3.78;0.95;;;;;;;-144.47;46.50;53414.25;5067207;28;20035;-70
2022/04/08 08:14:40;;;;;;;4.68;0.80;;;;;;;-144.47;47.14;53424.19;5066753;28;20041;-71
2022/04/08 08:17:06;;;;;;;2.83;1.05;;;;;;;-144.47;47.44;53432.13;5068764;28;20059;-71
2022/04/08 08:19:31;;;;;;;6.47;2.22;;;;;;;-144.47;47.44;53420.22;5050277;28;20025;-70
2022/04/08 08:21:56;;;;;;;6.15;1.48;;;;;;;-144.47;47.74;53402.31;5069304;28;20370;-70
2022/04/08 08:24:22;;;;;;;2.67;1.10;;;;;;;-144.47;47.84;53459.94;5067263;28;20086;-69
2022/04/08 08:26:47;;;;;;;4.30;1.02;;;;;;;-144.47;47.26;53426.16;5068671;28;20063;-69
2022/04/08 08:29:13;;;;;;;3.30;1.00;;;;;;;-144.47;47.42;53414.25;5067400;28;20060;-69
2022/04/08 08:31:38;;;;;;;6.53;1.40;;;;;;;-144.47;48.04;53430.13;5067044;28;20017;-69
2022/04/08 08:34:03;;;;;;;4.22;1.25;;;;;;;-144.47;47.63;53448.00;5057097;28;20139;-71
2022/04/08 08:36:30;;;;;;;6.93;1.10;;;;;;;-144.47;47.12;53412.25;5061246;28;20048;-71
2022/04/08 08:38:55;;;;;;;5.35;1.05;;;;;;;-144.47;47.33;53404.31;5060436;28;20804;-69
2022/04/08 08:41:22;;;;;;;10.23;1.23;;;;;;;-144.47;47.24;53428.16;5060469;28;20156;-70
2022/04/08 08:43:49;;;;;;;4.82;1.15;;;;;;;-144.47;46.87;53453.97;5058161;28;20417;-69
2022/04/08 08:46:16;;;;;;;5.47;1.25;;;;;;;-144.47;46.35;53448.00;5046522;28;20024;-69
2022/04/08 08:48:45;;;;;;;8.40;1.00;;;;;;;-144.47;47.02;53438.09;5063804;28;20037;-69
2022/04/08 08:51:13;;;;;;;5.00;1.48;;;;;;;-144.47;47.14;53430.13;5067553;28;20032;-65
2022/04/08 08:53:39;;;;;;;5.40;1.58;;;;;;;-144.47;47.07;53432.13;5064610;28;20032;-71
2022/04/08 08:56:05;;;;;;;7.25;1.40;;;;;;;-144.47;46.44;53428.16;5067366;28;20039;-69
2022/04/08 08:58:34;;;;;;;6.18;1.38;;;;;;;-144.47;46.32;53432.13;5068317;28;20062;-67
2022/04/08 09:00:59;;;;;;;3.07;0.97;;;;;;;-144.47;46.45;53440.06;5049467;28;20024;-68
2022/04/08 09:03:29;;;;;;;3.55;1.40;;;;;;;-144.47;46.32;53410.28;5067150;28;20288;-69
2022/04/08 09:06:03;;;;;;;4.85;1.20;;;;;;;-144.47;46.70;53457.94;5067129;28;20025;-67
2022/04/08 09:08:33;;;;;;;4.82;1.40;;;;;;;-144.47;45.87;53434.09;5066720;28;20414;-68
2022/04/08 09:10:58;;;;;;;8.88;1.70;;;;;;;-144.47;46.29;53436.09;5067451;28;20036;-68
2022/04/08 09:13:24;;;;;;;7.93;1.20;;;;;;;-144.47;46.37;53370.53;5049482;28;20122;-69
2022/04/08 09:15:56;;;;;;;4.28;1.27;;;;;;;-144.47;46.01;53400.34;5067327;28;20079;-70
2022/04/08 09:18:22;;;;;;;5.88;1.13;;;;;;;-144.47;45.85;53432.13;5049546;28;20025;-71
2022/04/08 09:20:49;;;;;;;3.05;1.13;;;;;;;-144.47;45.42;53432.13;5049201;28;20379;-69
2022/04/08 09:23:17;;;;;;;10.50;1.30;;;;;;;-144.47;45.35;53440.06;5067549;28;20115;-70
2022/04/08 09:25:43;;;;;;;7.25;1.35;;;;;;;-144.47;45.26;53436.09;5068178;28;20019;-68
2022/04/08 09:28:13;;;;;;;3.33;1.27;;;;;;;-144.47;45.25;53384.44;5072087;28;20095;-68
2022/04/08 09:30:40;;;;;;;6.32;1.25;;;;;;;-144.47;44.75;53434.09;5070693;28;20020;-69
2022/04/08 09:33:16;;;;;;;4.45;1.20;;;;;;;-144.47;44.13;53434.09;5052815;28;20040;-72
2022/04/08 09:35:42;;;;;;;8.32;1.35;;;;;;;-144.47;43.94;53436.09;5048639;28;20052;-67
2022/04/08 09:38:08;;;;;;;4.85;1.60;;;;;;;-144.47;44.49;53436.09;5071559;28;20391;-69
2022/04/08 09:40:44;;;;;;;6.45;1.50;;;;;;;-144.47;43.69;53420.22;5070766;28;20067;-70
2022/04/08 09:43:10;;;;;;;6.15;1.48;;;;;;;-144.47;42.79;53420.22;5070136;28;20017;-68
2022/04/08 09:45:38;;;;;;;8.25;1.48;;;;;;;-144.47;42.62;53400.34;5069806;28;20040;-70
2022/04/08 09:48:05;;;;;;;5.90;1.30;;;;;;;-144.47;42.67;53416.22;5071225;28;20035;-68
2022/04/08 09:50:31;;;;;;;7.93;1.30;;;;;;;-144.47;42.53;53360.63;5068962;28;20033;-71
2022/04/08 09:52:57;;;;;;;5.85;1.48;;;;;;;-144.47;41.97;53418.22;5070526;28;20115;-71
2022/04/08 09:55:23;;;;;;;8.00;1.33;;;;;;;-144.47;40.57;53406.31;5070392;28;20105;-70
2022/04/08 09:58:04;;;;;;;3.95;1.45;;;;;;;-144.47;40.55;53424.19;5070013;28;20050;-69
2022/04/08 10:00:31;;;;;;;3.65;1.27;;;;;;;-144.47;39.71;53410.28;5069880;28;20182;-68
2022/04/08 10:02:59;;;;;;;3.22;1.00;;;;;;;-144.47;39.54;53414.25;5070523;28;20032;-74
2022/04/08 10:05:24;;;;;;;4.05;1.23;;;;;;;-144.47;39.71;53430.13;5061617;28;20032;-70
2022/04/08 10:07:55;;;;;;;8.23;1.77;;;;;;;-144.47;39.84;53404.31;5069723;28;20032;-69
2022/04/08 10:10:22;;;;;;;9.80;1.73;;;;;;;-144.47;39.97;53392.41;5053245;28;20020;-68
2022/04/08 10:13:03;;;;;;;4.03;1.50;;;;;;;-144.47;39.98;53412.25;5068944;28;20387;-68
2022/04/08 10:15:42;;;;;;;4.53;1.40;;;;;;;-144.47;40.34;53392.41;5069577;28;20028;-67
2022/04/08 10:18:07;;;;;;;9.77;1.65;;;;;;;-144.47;39.99;53404.31;5052616;28;20128;-68
2022/04/08 10:20:35;;;;;;;6.28;1.38;;;;;;;-144.47;39.04;53414.25;5069824;28;20126;-70
2022/04/08 10:23:06;;;;;;;5.30;1.45;;;;;;;-144.47;38.69;53368.56;5069558;28;20056;-69
2022/04/08 10:25:41;;;;;;;6.47;1.30;;;;;;;-144.47;38.44;53432.13;5067271;28;20040;-73
2022/04/08 10:28:08;;;;;;;3.50;1.00;;;;;;;-144.47;38.69;53372.53;5070873;28;20028;-70
2022/04/08 10:30:38;;;;;;;4.57;1.20;;;;;;;-144.47;38.54;53424.19;5070064;28;20036;-69
2022/04/08 10:33:06;;;;;;;8.65;1.33;;;;;;;-144.47;39.27;53440.06;5069393;28;20121;-72
2022/04/08 10:35:32;;;;;;;6.57;1.52;;;;;;;-144.47;39.16;53416.22;5069071;28;20502;-71
2022/04/08 10:38:07;;;;;;;7.63;1.67;;;;;;;-144.47;39.62;53382.47;5070472;28;20102;-66
2022/04/08 10:40:35;;;;;;;4.07;1.45;;;;;;;-144.47;39.84;53390.41;5069089;28;20048;-70
2022/04/08 10:43:08;;;;;;;3.95;1.40;;;;;;;-144.47;40.18;53420.22;5070550;28;20020;-70
2022/04/08 10:45:35;;;;;;;5.65;1.40;;;;;;;-144.47;40.31;53398.34;5062633;28;20048;-70
2022/04/08 10:48:07;;;;;;;7.45;1.70;;;;;;;-144.47;40.76;53410.28;5051503;28;20138;-69
2022/04/08 10:50:33;;;;;;;4.10;1.15;;;;;;;-144.47;40.96;53430.13;5068367;28;20029;-68
2022/04/08 10:53:11;;;;;;;7.00;1.77;;;;;;;-144.47;41.09;53378.50;5050114;28;20039;-69
2022/04/08 10:55:51;;;;;;;5.55;1.52;;;;;;;-144.47;40.74;53384.44;5069798;28;20029;-68
2022/04/08 10:58:34;;;;;;;8.63;1.80;;;;;;;-144.47;40.44;53384.44;5070044;28;20035;-69
2022/04/08 11:00:59;;;;;;;8.20;1.52;;;;;;;-144.47;40.39;53396.38;5068878;28;20040;-68
2022/04/08 11:03:29;;;;;;;4.63;1.70;;;;;;;-144.47;40.31;53422.19;5067814;28;20234;-69
2022/04/08 11:05:55;;;;;;;3.20;1.20;;;;;;;-144.47;39.79;53390.41;5068859;28;20115;-70
2022/04/08 11:08:26;;;;;;;3.72;1.20;;;;;;;-144.47;39.61;53408.28;5069122;28;20028;-69
2022/04/08 11:10:58;;;;;;;12.13;1.50;;;;;;;-144.47;39.83;53412.25;5069479;28;20111;-70
2022/04/08 11:13:24;;;;;;;4.43;1.63;;;;;;;-144.47;39.93;53390.41;5069253;28;20096;-70
2022/04/08 11:15:49;;;;;;;5.03;1.30;;;;;;;-144.47;39.60;53370.53;5069072;28;20139;-73